Time;durP1;ratioP1;P1;durP2;ratioP2;P2;SDS_P1;SDS_P2;PMS_P1;PMS_P2;Temp;Humidity;BMP_temperature;BMP_pressure;BME280_temperature;BME280_humidity;BME280_pressure;Samples;Min_cycle;Max_cycle;Signal;HPM_P1;HPM_P2
2024/01/13 00:00:25;;;;;;;85.30;40.47;;;;;;;;;;5079463;28;20372;-83
2024/01/13 00:02:51;;;;;;;90.50;41.67;;;;;;;;;;5062451;28;20380;-83
2024/01/13 00:05:18;;;;;;;90.57;42.70;;;;;;;;;;5061159;28;20456;-84
2024/01/13 00:07:44;;;;;;;89.97;41.80;;;;;;;;;;5081676;28;20466;-84
2024/01/13 00:10:10;;;;;;;90.00;42.47;;;;;;;;;;5081284;28;20415;-84
2024/01/13 00:12:36;;;;;;;91.25;41.92;;;;;;;;;;5064929;28;20451;-84
2024/01/13 00:15:02;;;;;;;90.75;42.15;;;;;;;;;;5082628;28;20407;-84
2024/01/13 00:17:28;;;;;;;91.43;41.47;;;;;;;;;;5081347;28;20383;-84
2024/01/13 00:19:54;;;;;;;90.82;41.55;;;;;;;;;;5064312;28;20372;-84
2024/01/13 00:22:20;;;;;;;93.00;42.40;;;;;;;;;;5082063;28;20376;-84
2024/01/13 00:24:46;;;;;;;93.47;42.03;;;;;;;;;;5080965;28;20469;-84
2024/01/13 00:27:12;;;;;;;89.07;40.53;;;;;;;;;;5081562;28;20725;-84
2024/01/13 00:29:38;;;;;;;90.25;40.78;;;;;;;;;;5063539;28;20417;-84
2024/01/13 00:32:04;;;;;;;89.25;40.33;;;;;;;;;;5063614;28;20383;-84
2024/01/13 00:34:30;;;;;;;84.77;40.17;;;;;;;;;;5062253;28;20465;-84
2024/01/13 00:36:56;;;;;;;84.35;39.95;;;;;;;;;;5062625;28;20387;-84
2024/01/13 00:39:22;;;;;;;82.50;39.10;;;;;;;;;;5080793;28;20819;-83
2024/01/13 00:41:48;;;;;;;83.57;38.70;;;;;;;;;;5059642;28;20384;-84
2024/01/13 00:44:14;;;;;;;88.47;40.10;;;;;;;;;;5080664;28;20753;-83
2024/01/13 00:46:41;;;;;;;85.03;39.45;;;;;;;;;;5080076;28;20754;-85
2024/01/13 00:49:07;;;;;;;90.95;40.45;;;;;;;;;;5080719;28;20921;-84
2024/01/13 00:51:33;;;;;;;82.63;39.97;;;;;;;;;;5079964;28;20411;-84
2024/01/13 00:54:00;;;;;;;82.75;37.50;;;;;;;;;;5080857;28;20408;-84
2024/01/13 00:56:26;;;;;;;81.03;38.58;;;;;;;;;;5079611;28;20380;-84
2024/01/13 00:58:52;;;;;;;81.05;37.50;;;;;;;;;;5081099;28;20379;-83
2024/01/13 01:01:18;;;;;;;83.15;39.78;;;;;;;;;;5081073;28;20375;-84
2024/01/13 01:03:44;;;;;;;85.20;39.00;;;;;;;;;;5080485;28;20379;-84
2024/01/13 01:06:10;;;;;;;81.38;38.60;;;;;;;;;;5062483;28;20859;-84
2024/01/13 01:08:36;;;;;;;81.45;37.65;;;;;;;;;;5079897;28;20380;-84
2024/01/13 01:11:02;;;;;;;80.93;38.58;;;;;;;;;;5080049;28;20876;-83
2024/01/13 01:13:29;;;;;;;84.93;39.45;;;;;;;;;;5079834;28;20421;-84
2024/01/13 01:15:55;;;;;;;79.53;36.67;;;;;;;;;;5078550;28;20379;-84
2024/01/13 01:18:20;;;;;;;79.55;37.88;;;;;;;;;;5076767;28;20714;-84
2024/01/13 01:20:47;;;;;;;79.07;36.50;;;;;;;;;;5054475;28;20376;-84
2024/01/13 01:23:13;;;;;;;81.13;38.70;;;;;;;;;;5072754;28;20460;-83
2024/01/13 01:25:39;;;;;;;77.63;36.95;;;;;;;;;;5071970;28;20486;-83
2024/01/13 01:28:05;;;;;;;77.95;36.42;;;;;;;;;;5054183;28;20380;-83
2024/01/13 01:30:31;;;;;;;83.60;38.30;;;;;;;;;;5072278;28;20384;-83
2024/01/13 01:32:57;;;;;;;84.15;39.50;;;;;;;;;;5072393;28;20730;-83
2024/01/13 01:35:23;;;;;;;85.53;39.57;;;;;;;;;;5071931;28;20522;-83
2024/01/13 01:37:49;;;;;;;88.53;39.65;;;;;;;;;;5072643;28;20797;-83
2024/01/13 01:40:16;;;;;;;94.47;41.40;;;;;;;;;;5054896;28;20380;-83
2024/01/13 01:42:42;;;;;;;84.60;39.75;;;;;;;;;;5072989;28;20380;-83
2024/01/13 01:45:08;;;;;;;82.45;39.78;;;;;;;;;;5072945;28;20896;-83
2024/01/13 01:47:36;;;;;;;85.13;38.72;;;;;;;;;;5054905;28;20415;-83
2024/01/13 01:50:02;;;;;;;84.40;38.37;;;;;;;;;;5054938;28;20383;-83
2024/01/13 01:52:28;;;;;;;80.22;39.20;;;;;;;;;;5072786;28;20379;-83
2024/01/13 01:54:54;;;;;;;82.80;38.37;;;;;;;;;;5072944;28;20769;-83
2024/01/13 01:57:22;;;;;;;82.47;38.35;;;;;;;;;;5054644;28;20387;-83
2024/01/13 01:59:48;;;;;;;79.63;36.88;;;;;;;;;;5072547;28;20380;-83
2024/01/13 02:02:14;;;;;;;81.18;37.88;;;;;;;;;;5072724;28;20387;-83
2024/01/13 02:04:40;;;;;;;76.85;36.60;;;;;;;;;;5077353;28;20383;-83
2024/01/13 02:07:07;;;;;;;77.35;37.15;;;;;;;;;;5076566;28;20391;-83
2024/01/13 02:09:33;;;;;;;76.05;36.67;;;;;;;;;;5076356;28;20414;-83
2024/01/13 02:11:59;;;;;;;82.33;37.50;;;;;;;;;;5076489;28;20757;-83
2024/01/13 02:14:25;;;;;;;77.32;37.47;;;;;;;;;;5077545;28;20745;-83
2024/01/13 02:16:52;;;;;;;70.50;35.08;;;;;;;;;;5077565;28;20383;-83
2024/01/13 02:19:18;;;;;;;78.63;36.65;;;;;;;;;;5077625;28;20372;-83
2024/01/13 02:21:44;;;;;;;80.40;37.15;;;;;;;;;;5077608;28;20459;-83
2024/01/13 02:24:10;;;;;;;73.68;35.72;;;;;;;;;;5058977;28;20873;-83
2024/01/13 02:26:36;;;;;;;81.50;37.50;;;;;;;;;;5076873;28;20384;-83
2024/01/13 02:29:02;;;;;;;75.68;36.45;;;;;;;;;;5059293;28;20884;-83
2024/01/13 02:31:28;;;;;;;79.15;36.55;;;;;;;;;;5078556;28;20391;-83
2024/01/13 02:33:54;;;;;;;75.72;35.30;;;;;;;;;;5057739;28;20416;-83
2024/01/13 02:36:20;;;;;;;76.93;36.00;;;;;;;;;;5040364;28;20385;-83
2024/01/13 02:38:46;;;;;;;74.25;35.50;;;;;;;;;;5039903;28;20382;-83
2024/01/13 02:41:12;;;;;;;79.53;36.83;;;;;;;;;;5057738;28;20378;-83
2024/01/13 02:43:38;;;;;;;74.53;35.42;;;;;;;;;;5040582;28;20867;-83
2024/01/13 02:46:04;;;;;;;75.20;35.65;;;;;;;;;;5059608;28;20386;-83
2024/01/13 02:48:34;;;;;;;73.00;34.15;;;;;;;;;;5063052;28;20412;-83
2024/01/13 02:51:02;;;;;;;75.57;35.05;;;;;;;;;;5068082;28;20374;-83
2024/01/13 02:53:28;;;;;;;75.15;35.58;;;;;;;;;;5059911;28;20705;-83
2024/01/13 02:55:54;;;;;;;72.38;33.83;;;;;;;;;;5059849;28;20381;-83
2024/01/13 02:58:20;;;;;;;73.00;35.20;;;;;;;;;;5061416;28;20377;-83
2024/01/13 03:00:46;;;;;;;74.80;34.85;;;;;;;;;;5041823;28;20374;-83
2024/01/13 03:03:12;;;;;;;80.65;36.15;;;;;;;;;;5059313;28;20416;-83
2024/01/13 03:05:38;;;;;;;83.05;36.78;;;;;;;;;;5058087;28;20388;-83
2024/01/13 03:08:04;;;;;;;79.03;36.22;;;;;;;;;;5058097;28;20385;-83
2024/01/13 03:10:31;;;;;;;79.95;35.85;;;;;;;;;;5058200;28;20384;-83
2024/01/13 03:12:57;;;;;;;77.78;36.00;;;;;;;;;;5058457;28;20385;-83
2024/01/13 03:15:23;;;;;;;77.05;35.35;;;;;;;;;;5058721;28;20413;-83
2024/01/13 03:17:49;;;;;;;73.47;34.08;;;;;;;;;;5058463;28;20431;-83
2024/01/13 03:20:15;;;;;;;75.20;34.55;;;;;;;;;;5059207;28;20739;-83
2024/01/13 03:22:41;;;;;;;74.78;34.30;;;;;;;;;;5040904;28;20400;-83
2024/01/13 03:25:08;;;;;;;71.00;33.80;;;;;;;;;;5058454;28;20843;-83
2024/01/13 03:27:34;;;;;;;70.22;33.60;;;;;;;;;;5058147;28;20397;-83
2024/01/13 03:30:00;;;;;;;74.67;34.67;;;;;;;;;;5039261;28;20389;-83
2024/01/13 03:32:26;;;;;;;75.75;34.15;;;;;;;;;;5039744;28;20405;-83
2024/01/13 03:34:51;;;;;;;72.20;34.03;;;;;;;;;;5058115;28;20413;-83
2024/01/13 03:37:17;;;;;;;77.90;34.30;;;;;;;;;;5039924;28;20882;-83
2024/01/13 03:39:43;;;;;;;74.78;34.72;;;;;;;;;;5056771;28;20420;-83
2024/01/13 03:42:09;;;;;;;71.13;33.58;;;;;;;;;;5039247;28;20396;-83
2024/01/13 03:44:35;;;;;;;69.63;32.95;;;;;;;;;;5057551;28;20855;-83
2024/01/13 03:47:01;;;;;;;75.50;33.75;;;;;;;;;;5059548;28;20429;-83
2024/01/13 03:49:27;;;;;;;73.55;32.40;;;;;;;;;;5061405;28;20393;-83
2024/01/13 03:51:53;;;;;;;75.63;33.88;;;;;;;;;;5043038;28;20385;-83
2024/01/13 03:54:19;;;;;;;65.05;31.42;;;;;;;;;;5060729;28;20420;-84
2024/01/13 03:56:45;;;;;;;73.55;32.33;;;;;;;;;;5042534;28;20414;-83
2024/01/13 03:59:14;;;;;;;71.57;32.45;;;;;;;;;;5058949;28;20453;-83
2024/01/13 04:01:40;;;;;;;68.60;30.85;;;;;;;;;;5059319;28;20882;-83
2024/01/13 04:04:06;;;;;;;67.22;31.60;;;;;;;;;;5058661;28;20393;-83
2024/01/13 04:06:32;;;;;;;70.82;32.30;;;;;;;;;;5059213;28;20381;-84
2024/01/13 04:08:58;;;;;;;68.10;32.03;;;;;;;;;;5060743;28;20386;-83
2024/01/13 04:11:24;;;;;;;63.80;31.53;;;;;;;;;;5059985;28;20425;-83
2024/01/13 04:13:50;;;;;;;71.75;32.58;;;;;;;;;;5041881;28;20463;-83
2024/01/13 04:16:16;;;;;;;68.82;30.67;;;;;;;;;;5059473;28;20736;-83
2024/01/13 04:18:42;;;;;;;67.72;31.63;;;;;;;;;;5041608;28;20388;-83
2024/01/13 04:21:08;;;;;;;68.68;30.90;;;;;;;;;;5059813;28;20448;-83
2024/01/13 04:23:34;;;;;;;71.82;31.88;;;;;;;;;;5059384;28;20411;-83
2024/01/13 04:26:00;;;;;;;72.53;32.10;;;;;;;;;;5058751;28;20439;-83
2024/01/13 04:28:26;;;;;;;71.63;31.33;;;;;;;;;;5059767;28;20381;-83
2024/01/13 04:30:52;;;;;;;68.20;31.23;;;;;;;;;;5060590;28;20712;-83
2024/01/13 04:33:18;;;;;;;73.97;32.53;;;;;;;;;;5071106;28;20384;-83
2024/01/13 04:35:44;;;;;;;69.60;31.95;;;;;;;;;;5056612;28;20777;-83
2024/01/13 04:38:10;;;;;;;66.25;30.88;;;;;;;;;;5056563;28;20417;-83
2024/01/13 04:40:37;;;;;;;69.40;30.88;;;;;;;;;;5060503;28;20388;-84
2024/01/13 04:43:06;;;;;;;68.60;31.23;;;;;;;;;;5088416;28;20923;-83
2024/01/13 04:45:32;;;;;;;68.83;31.30;;;;;;;;;;5065072;28;20423;-83
2024/01/13 04:47:58;;;;;;;70.05;32.10;;;;;;;;;;5082854;28;20404;-83
2024/01/13 04:50:24;;;;;;;69.53;31.20;;;;;;;;;;5081363;28;20449;-83
2024/01/13 04:52:50;;;;;;;75.20;32.03;;;;;;;;;;5062634;28;20388;-83
2024/01/13 04:55:16;;;;;;;74.20;31.60;;;;;;;;;;5080450;28;20414;-83
2024/01/13 04:57:42;;;;;;;73.13;31.75;;;;;;;;;;5075164;28;20737;-83
2024/01/13 05:00:08;;;;;;;72.57;31.50;;;;;;;;;;5078692;28;20403;-83
2024/01/13 05:02:34;;;;;;;75.40;32.25;;;;;;;;;;5078329;28;20368;-83
2024/01/13 05:05:00;;;;;;;71.07;31.35;;;;;;;;;;5060101;28;20395;-83
2024/01/13 05:07:26;;;;;;;74.03;31.55;;;;;;;;;;5077096;28;20433;-83
2024/01/13 05:09:52;;;;;;;69.72;30.05;;;;;;;;;;5077187;28;20398;-83
2024/01/13 05:12:18;;;;;;;67.95;29.48;;;;;;;;;;5075820;28;20376;-83
2024/01/13 05:14:44;;;;;;;64.45;28.42;;;;;;;;;;5076768;28;21046;-83
2024/01/13 05:17:10;;;;;;;60.80;29.10;;;;;;;;;;5077464;28;20429;-83
2024/01/13 05:19:36;;;;;;;63.20;29.27;;;;;;;;;;5078879;28;20382;-83
2024/01/13 05:22:02;;;;;;;61.30;27.80;;;;;;;;;;5062302;28;20395;-83
2024/01/13 05:24:28;;;;;;;63.30;28.40;;;;;;;;;;5061127;28;20388;-83
2024/01/13 05:26:54;;;;;;;60.30;27.70;;;;;;;;;;5077852;28;20881;-83
2024/01/13 05:29:20;;;;;;;62.75;28.45;;;;;;;;;;5078753;28;20387;-83
2024/01/13 05:31:49;;;;;;;62.40;29.08;;;;;;;;;;5060223;28;20380;-83
2024/01/13 05:34:15;;;;;;;63.30;28.50;;;;;;;;;;5077767;28;20436;-83
2024/01/13 05:36:41;;;;;;;63.70;28.80;;;;;;;;;;5078903;28;20729;-83
2024/01/13 05:39:07;;;;;;;60.53;28.35;;;;;;;;;;5081396;28;20378;-83
2024/01/13 05:41:33;;;;;;;64.35;29.00;;;;;;;;;;5081436;28;20372;-83
2024/01/13 05:43:59;;;;;;;65.90;29.30;;;;;;;;;;5079947;28;20392;-83
2024/01/13 05:46:25;;;;;;;63.92;28.77;;;;;;;;;;5079835;28;20406;-83
2024/01/13 05:48:51;;;;;;;62.50;29.48;;;;;;;;;;5079174;28;20400;-83
2024/01/13 05:51:17;;;;;;;69.63;30.00;;;;;;;;;;5078433;28;20857;-83
2024/01/13 05:53:44;;;;;;;61.88;26.63;;;;;;;;;;5060928;28;20388;-83
2024/01/13 05:56:10;;;;;;;60.97;26.70;;;;;;;;;;5079860;28;20869;-83
2024/01/13 05:58:37;;;;;;;56.47;25.23;;;;;;;;;;5060216;28;20779;-83
2024/01/13 06:01:03;;;;;;;64.65;26.95;;;;;;;;;;5079511;28;20430;-83
2024/01/13 06:03:29;;;;;;;63.42;27.10;;;;;;;;;;5079962;28;20439;-83
2024/01/13 06:05:55;;;;;;;71.63;28.55;;;;;;;;;;5079370;28;20403;-83
2024/01/13 06:08:21;;;;;;;80.78;30.27;;;;;;;;;;5079107;28;20403;-83
2024/01/13 06:10:47;;;;;;;83.55;31.08;;;;;;;;;;5060792;28;20386;-83
2024/01/13 06:13:13;;;;;;;76.45;30.33;;;;;;;;;;5079421;28;20386;-83
2024/01/13 06:15:39;;;;;;;75.38;30.45;;;;;;;;;;5079418;28;20404;-83
2024/01/13 06:18:05;;;;;;;74.60;29.83;;;;;;;;;;5079105;28;20372;-83
2024/01/13 06:20:31;;;;;;;66.20;27.70;;;;;;;;;;5062766;28;20380;-83
2024/01/13 06:22:57;;;;;;;70.88;29.17;;;;;;;;;;5079335;28;20417;-83
2024/01/13 06:25:23;;;;;;;65.60;29.13;;;;;;;;;;5079601;28;20392;-83
2024/01/13 06:27:49;;;;;;;61.70;27.02;;;;;;;;;;5077803;28;20940;-83
2024/01/13 06:30:15;;;;;;;74.07;29.80;;;;;;;;;;5077568;28;20423;-83
2024/01/13 06:32:41;;;;;;;77.20;30.83;;;;;;;;;;5076654;28;20388;-82
2024/01/13 06:35:07;;;;;;;70.28;29.52;;;;;;;;;;5078134;28;20396;-83
2024/01/13 06:37:33;;;;;;;64.97;28.67;;;;;;;;;;5078608;28;20433;-83
2024/01/13 06:39:59;;;;;;;68.97;29.27;;;;;;;;;;5058274;28;20404;-83
2024/01/13 06:42:25;;;;;;;67.20;28.70;;;;;;;;;;5058161;28;20455;-83
2024/01/13 06:44:52;;;;;;;69.00;28.88;;;;;;;;;;5057471;28;20841;-83
2024/01/13 06:47:18;;;;;;;72.13;29.83;;;;;;;;;;5057194;28;20469;-83
2024/01/13 06:49:44;;;;;;;70.38;29.15;;;;;;;;;;5056317;28;20421;-83
2024/01/13 06:52:12;;;;;;;69.17;29.03;;;;;;;;;;5058660;28;20476;-83
2024/01/13 06:54:38;;;;;;;65.53;28.70;;;;;;;;;;5077493;28;20742;-83
2024/01/13 06:57:04;;;;;;;65.95;28.17;;;;;;;;;;5059539;28;20378;-83
2024/01/13 06:59:30;;;;;;;64.07;28.75;;;;;;;;;;5054247;28;20822;-83
2024/01/13 07:01:56;;;;;;;68.53;29.13;;;;;;;;;;5056167;28;20412;-83
2024/01/13 07:04:22;;;;;;;67.95;29.58;;;;;;;;;;5038314;28;20397;-83
2024/01/13 07:06:48;;;;;;;79.60;29.15;;;;;;;;;;5055229;28;20385;-83
2024/01/13 07:09:17;;;;;;;72.57;29.63;;;;;;;;;;5055467;28;20392;-83
2024/01/13 07:11:43;;;;;;;71.80;29.98;;;;;;;;;;5056942;28;20373;-83
2024/01/13 07:14:09;;;;;;;70.80;30.27;;;;;;;;;;5057582;28;20500;-83
2024/01/13 07:16:35;;;;;;;70.85;29.45;;;;;;;;;;5039097;28;20524;-83
2024/01/13 07:19:01;;;;;;;68.43;29.10;;;;;;;;;;5058165;28;20867;-83
2024/01/13 07:21:29;;;;;;;84.32;31.88;;;;;;;;;;5058028;28;20384;-83
2024/01/13 07:23:55;;;;;;;81.90;31.23;;;;;;;;;;5058211;28;20468;-83
2024/01/13 07:26:21;;;;;;;71.53;29.38;;;;;;;;;;5040657;28;20444;-83
2024/01/13 07:28:47;;;;;;;73.57;29.65;;;;;;;;;;5056982;28;20389;-83
2024/01/13 07:31:13;;;;;;;71.60;29.92;;;;;;;;;;5056583;28;20435;-83
2024/01/13 07:33:38;;;;;;;64.07;28.38;;;;;;;;;;5055046;28;20385;-83
2024/01/13 07:36:05;;;;;;;64.32;28.50;;;;;;;;;;5054919;28;20389;-83
2024/01/13 07:38:31;;;;;;;61.40;27.17;;;;;;;;;;5037041;28;20843;-83
2024/01/13 07:40:57;;;;;;;57.88;27.23;;;;;;;;;;5054911;28;20392;-84
2024/01/13 07:43:23;;;;;;;67.65;29.33;;;;;;;;;;5037406;28;20419;-83
2024/01/13 07:45:49;;;;;;;66.10;28.33;;;;;;;;;;5054744;28;20404;-83
2024/01/13 07:48:15;;;;;;;61.30;27.77;;;;;;;;;;5057850;28;20409;-83
2024/01/13 07:50:41;;;;;;;63.13;27.90;;;;;;;;;;5067144;28;20466;-83
2024/01/13 07:53:07;;;;;;;59.85;26.85;;;;;;;;;;5056021;28;20442;-83
2024/01/13 07:55:33;;;;;;;64.78;27.75;;;;;;;;;;5053372;28;20414;-83
2024/01/13 07:57:59;;;;;;;60.33;27.73;;;;;;;;;;5065397;28;20377;-83
2024/01/13 08:00:27;;;;;;;57.85;27.42;;;;;;;;;;5063749;28;20384;-83
2024/01/13 08:02:53;;;;;;;56.00;26.47;;;;;;;;;;5065740;28;20372;-82
2024/01/13 08:05:20;;;;;;;57.70;27.02;;;;;;;;;;5069347;28;20384;-83
2024/01/13 08:07:47;;;;;;;57.65;26.95;;;;;;;;;;5059642;28;20382;-83
2024/01/13 08:10:13;;;;;;;55.72;25.88;;;;;;;;;;5054592;28;20386;-83
2024/01/13 08:12:39;;;;;;;58.07;26.77;;;;;;;;;;5055142;28;20828;-83
2024/01/13 08:15:05;;;;;;;57.40;26.65;;;;;;;;;;5039285;28;20435;-83
2024/01/13 08:17:32;;;;;;;58.03;26.10;;;;;;;;;;5056890;28;20378;-83
2024/01/13 08:19:58;;;;;;;53.60;24.33;;;;;;;;;;5055546;28;20404;-83
2024/01/13 08:22:24;;;;;;;54.67;24.73;;;;;;;;;;5037240;28;20716;-83
2024/01/13 08:24:50;;;;;;;54.25;25.08;;;;;;;;;;5055718;28;20392;-83
2024/01/13 08:27:15;;;;;;;56.05;27.02;;;;;;;;;;5037032;28;20393;-83
2024/01/13 08:29:41;;;;;;;55.80;25.63;;;;;;;;;;5054475;28;20388;-83
2024/01/13 08:32:07;;;;;;;52.63;25.10;;;;;;;;;;5054625;28;20498;-83
2024/01/13 08:34:33;;;;;;;55.95;25.50;;;;;;;;;;5036675;28;20447;-83
2024/01/13 08:36:59;;;;;;;55.10;25.75;;;;;;;;;;5036779;28;20893;-83
2024/01/13 08:39:25;;;;;;;54.92;25.83;;;;;;;;;;5054831;28;20382;-83
2024/01/13 08:41:51;;;;;;;53.65;25.30;;;;;;;;;;5044086;28;20380;-83
2024/01/13 08:44:17;;;;;;;69.53;34.03;;;;;;;;;;5046238;28;20424;-83
2024/01/13 08:46:43;;;;;;;57.23;27.33;;;;;;;;;;5068306;28;21081;-83
2024/01/13 08:49:09;;;;;;;60.95;27.30;;;;;;;;;;5063070;28;20391;-83
2024/01/13 08:51:35;;;;;;;57.33;24.88;;;;;;;;;;5047819;28;20384;-83
2024/01/13 08:54:04;;;;;;;51.00;24.63;;;;;;;;;;5074747;28;20503;-83
2024/01/13 08:56:31;;;;;;;55.13;25.30;;;;;;;;;;5074128;28;20416;-83
2024/01/13 08:58:57;;;;;;;51.05;23.33;;;;;;;;;;5075339;28;20390;-84
2024/01/13 09:01:22;;;;;;;59.30;26.20;;;;;;;;;;5076615;28;20392;-84
2024/01/13 09:03:48;;;;;;;53.80;24.42;;;;;;;;;;5076671;28;20483;-83
2024/01/13 09:06:14;;;;;;;48.67;23.98;;;;;;;;;;5077079;28;20382;-83
2024/01/13 09:08:40;;;;;;;57.28;25.98;;;;;;;;;;5061251;28;20391;-83
2024/01/13 09:11:06;;;;;;;59.47;24.83;;;;;;;;;;5076089;28;20849;-82
2024/01/13 09:13:32;;;;;;;61.70;26.75;;;;;;;;;;5082848;28;20382;-83
2024/01/13 09:15:58;;;;;;;59.78;25.35;;;;;;;;;;5066147;28;20408;-83
2024/01/13 09:18:25;;;;;;;59.35;26.73;;;;;;;;;;5063425;28;20413;-83
2024/01/13 09:20:51;;;;;;;60.75;25.73;;;;;;;;;;5082101;28;20376;-83
2024/01/13 09:23:17;;;;;;;53.03;23.15;;;;;;;;;;5080753;28;20379;-83
2024/01/13 09:25:43;;;;;;;46.63;21.80;;;;;;;;;;5067351;28;20384;-83
2024/01/13 09:28:09;;;;;;;49.80;22.27;;;;;;;;;;5079879;28;20383;-83
2024/01/13 09:30:36;;;;;;;50.92;23.50;;;;;;;;;;5078943;28;20845;-83
2024/01/13 09:33:02;;;;;;;57.13;24.40;;;;;;;;;;5060283;28;20392;-83
2024/01/13 09:35:31;;;;;;;62.58;26.52;;;;;;;;;;5079023;28;20404;-83
2024/01/13 09:37:57;;;;;;;65.47;26.23;;;;;;;;;;5078127;28;20422;-83
2024/01/13 09:40:23;;;;;;;64.32;26.58;;;;;;;;;;5079002;28;20378;-83
2024/01/13 09:42:53;;;;;;;72.43;29.33;;;;;;;;;;5078265;28;20368;-83
2024/01/13 09:45:19;;;;;;;70.05;28.77;;;;;;;;;;5059474;28;20410;-81
2024/01/13 09:47:46;;;;;;;70.68;27.30;;;;;;;;;;5076722;28;20410;-82
2024/01/13 09:50:12;;;;;;;67.53;26.33;;;;;;;;;;5074270;28;20930;-82
2024/01/13 09:52:38;;;;;;;64.40;26.80;;;;;;;;;;5075195;28;20391;-82
2024/01/13 09:55:06;;;;;;;68.70;27.65;;;;;;;;;;5075179;28;20414;-82
2024/01/13 09:57:32;;;;;;;69.63;27.45;;;;;;;;;;5074753;28;20413;-83
2024/01/13 09:59:58;;;;;;;74.00;29.48;;;;;;;;;;5074889;28;20368;-82
2024/01/13 10:02:24;;;;;;;80.13;30.70;;;;;;;;;;5057583;28;20387;-83
2024/01/13 10:04:50;;;;;;;76.07;29.38;;;;;;;;;;5076730;28;20383;-83
2024/01/13 10:07:16;;;;;;;75.35;29.73;;;;;;;;;;5075860;28;20761;-83
2024/01/13 10:09:43;;;;;;;76.47;29.85;;;;;;;;;;5058892;28;20472;-83
2024/01/13 10:12:09;;;;;;;75.88;28.75;;;;;;;;;;5076336;28;20387;-83
2024/01/13 10:14:38;;;;;;;76.63;29.83;;;;;;;;;;5075778;28;20407;-83
2024/01/13 10:17:04;;;;;;;71.90;30.00;;;;;;;;;;5076341;28;20862;-83
2024/01/13 10:19:30;;;;;;;75.73;30.37;;;;;;;;;;5075941;28;20633;-83
2024/01/13 10:21:56;;;;;;;80.75;31.52;;;;;;;;;;5076804;28;20376;-83
2024/01/13 10:24:22;;;;;;;71.85;30.33;;;;;;;;;;5075582;28;20376;-83
2024/01/13 10:26:48;;;;;;;76.28;29.95;;;;;;;;;;5057572;28;20395;-83
2024/01/13 10:29:14;;;;;;;71.53;29.30;;;;;;;;;;5074238;28;20433;-83
2024/01/13 10:31:40;;;;;;;72.10;28.67;;;;;;;;;;5075627;28;20406;-83
2024/01/13 10:34:10;;;;;;;65.07;27.20;;;;;;;;;;5075585;28;20494;-83
2024/01/13 10:36:36;;;;;;;68.80;29.25;;;;;;;;;;5074885;28;20380;-83
2024/01/13 10:39:02;;;;;;;64.20;28.45;;;;;;;;;;5074802;28;20420;-83
2024/01/13 10:41:29;;;;;;;67.20;29.20;;;;;;;;;;5075552;28;20812;-83
2024/01/13 10:43:56;;;;;;;74.47;29.87;;;;;;;;;;5075827;28;20439;-83
2024/01/13 10:46:23;;;;;;;66.55;30.05;;;;;;;;;;5074584;28;20373;-83
2024/01/13 10:48:51;;;;;;;61.22;28.05;;;;;;;;;;5074393;28;20862;-83
2024/01/13 10:51:26;;;;;;;62.90;28.75;;;;;;;;;;5075429;28;20375;-83
2024/01/13 10:53:53;;;;;;;62.60;28.48;;;;;;;;;;5075480;28;20386;-82
2024/01/13 10:56:19;;;;;;;65.65;28.90;;;;;;;;;;5077781;28;20642;-83
2024/01/13 10:58:49;;;;;;;70.00;30.75;;;;;;;;;;5045000;28;20405;-83
2024/01/13 11:01:15;;;;;;;70.85;30.35;;;;;;;;;;5057557;28;20397;-82
2024/01/13 11:03:41;;;;;;;66.32;28.63;;;;;;;;;;5057768;28;20382;-83
2024/01/13 11:06:07;;;;;;;68.97;30.65;;;;;;;;;;5056108;28;20382;-82
2024/01/13 11:08:35;;;;;;;67.45;29.77;;;;;;;;;;5054281;28;20452;-82
2024/01/13 11:11:01;;;;;;;64.60;28.70;;;;;;;;;;5036122;28;20393;-81
2024/01/13 11:13:29;;;;;;;72.70;29.10;;;;;;;;;;5054064;28;20385;-82
2024/01/13 11:16:03;;;;;;;70.15;29.10;;;;;;;;;;5055155;28;20401;-82
2024/01/13 11:18:34;;;;;;;69.55;28.67;;;;;;;;;;5054503;28;20455;-82
2024/01/13 11:21:07;;;;;;;69.53;27.83;;;;;;;;;;5037148;28;20377;-83
2024/01/13 11:24:01;;;;;;;71.25;29.73;;;;;;;;;;5055216;28;20802;-81
2024/01/13 11:26:43;;;;;;;63.78;27.23;;;;;;;;;;5051546;28;20793;-82
2024/01/13 11:29:16;;;;;;;70.05;29.10;;;;;;;;;;5054833;28;25170;-80
2024/01/13 11:31:42;;;;;;;63.28;27.95;;;;;;;;;;5054903;28;20467;-81
2024/01/13 11:34:10;;;;;;;67.05;27.80;;;;;;;;;;5054293;28;20709;-81
2024/01/13 11:36:40;;;;;;;65.27;27.67;;;;;;;;;;5054486;28;20472;-82
2024/01/13 11:39:06;;;;;;;71.13;30.02;;;;;;;;;;5054544;28;20912;-81
2024/01/13 11:41:41;;;;;;;65.10;27.83;;;;;;;;;;5036581;28;20381;-81
2024/01/13 11:44:08;;;;;;;69.83;27.93;;;;;;;;;;5053487;28;20469;-82
2024/01/13 11:46:38;;;;;;;65.57;28.20;;;;;;;;;;5053122;28;20392;-83
2024/01/13 11:49:07;;;;;;;61.95;26.15;;;;;;;;;;5054599;28;20417;-82
2024/01/13 11:51:51;;;;;;;68.63;27.88;;;;;;;;;;5054927;28;20892;-80
2024/01/13 11:54:17;;;;;;;65.47;27.58;;;;;;;;;;5056217;28;20443;-81
2024/01/13 11:56:45;;;;;;;60.95;27.58;;;;;;;;;;5056884;28;21119;-81
2024/01/13 11:59:11;;;;;;;62.45;27.50;;;;;;;;;;5054349;28;20464;-82
2024/01/13 12:01:37;;;;;;;63.67;27.88;;;;;;;;;;5053181;28;20495;-82
2024/01/13 12:04:03;;;;;;;61.20;28.42;;;;;;;;;;5053292;28;20965;-82
2024/01/13 12:06:29;;;;;;;64.60;28.13;;;;;;;;;;5052967;28;20382;-82
2024/01/13 12:08:56;;;;;;;70.38;29.85;;;;;;;;;;5035316;28;20451;-82
2024/01/13 12:11:22;;;;;;;70.03;28.70;;;;;;;;;;5036056;28;20378;-82
2024/01/13 12:13:48;;;;;;;71.32;29.65;;;;;;;;;;5053141;28;20381;-82
2024/01/13 12:16:14;;;;;;;64.83;28.67;;;;;;;;;;5035072;28;20866;-82
2024/01/13 12:18:40;;;;;;;68.95;28.83;;;;;;;;;;5036371;28;20789;-82
2024/01/13 12:21:06;;;;;;;64.20;28.47;;;;;;;;;;5052810;28;20386;-82
2024/01/13 12:23:32;;;;;;;63.28;28.00;;;;;;;;;;5052504;28;20377;-81
2024/01/13 12:25:58;;;;;;;67.47;29.07;;;;;;;;;;5053944;28;20385;-82
2024/01/13 12:28:24;;;;;;;74.35;32.00;;;;;;;;;;5053571;28;20739;-82
2024/01/13 12:30:53;;;;;;;71.47;30.43;;;;;;;;;;5036198;28;20393;-81
2024/01/13 12:33:19;;;;;;;74.32;30.23;;;;;;;;;;5053712;28;20374;-81
2024/01/13 12:35:48;;;;;;;71.70;29.50;;;;;;;;;;5055010;28;20410;-82
2024/01/13 12:38:14;;;;;;;74.15;29.60;;;;;;;;;;5074054;28;20383;-82
2024/01/13 12:40:40;;;;;;;67.25;29.23;;;;;;;;;;5075142;28;20373;-82
2024/01/13 12:43:06;;;;;;;70.03;29.08;;;;;;;;;;5057231;28;20699;-82
2024/01/13 12:45:33;;;;;;;67.93;29.20;;;;;;;;;;5056797;28;20442;-82
2024/01/13 12:47:59;;;;;;;72.47;30.30;;;;;;;;;;5056619;28;20411;-82
2024/01/13 12:50:25;;;;;;;68.05;29.55;;;;;;;;;;5056840;28;20394;-82
2024/01/13 12:52:51;;;;;;;65.07;28.43;;;;;;;;;;5075561;28;20392;-82
2024/01/13 12:55:17;;;;;;;66.90;30.73;;;;;;;;;;5074583;28;20411;-82
2024/01/13 12:57:43;;;;;;;70.00;32.07;;;;;;;;;;5074099;28;20704;-82
2024/01/13 13:00:09;;;;;;;67.22;30.23;;;;;;;;;;5074638;28;20399;-82
2024/01/13 13:02:35;;;;;;;65.22;28.02;;;;;;;;;;5074181;28;20400;-82
2024/01/13 13:05:04;;;;;;;66.75;29.20;;;;;;;;;;5074841;28;20437;-82
2024/01/13 13:07:31;;;;;;;68.43;29.60;;;;;;;;;;5057015;28;20380;-82
2024/01/13 13:09:58;;;;;;;69.88;29.73;;;;;;;;;;5074518;28;20387;-82
2024/01/13 13:12:24;;;;;;;71.45;29.52;;;;;;;;;;5075473;28;20873;-82
2024/01/13 13:14:50;;;;;;;66.63;27.77;;;;;;;;;;5054469;28;20505;-82
2024/01/13 13:17:17;;;;;;;69.60;29.25;;;;;;;;;;5074723;28;20371;-82
2024/01/13 13:19:43;;;;;;;69.00;30.15;;;;;;;;;;5057449;28;20384;-82
2024/01/13 13:22:09;;;;;;;74.15;30.73;;;;;;;;;;5075166;28;20388;-82
2024/01/13 13:24:35;;;;;;;83.15;32.75;;;;;;;;;;5075441;28;20422;-82
2024/01/13 13:27:01;;;;;;;68.78;28.23;;;;;;;;;;5075349;28;20380;-82
2024/01/13 13:29:27;;;;;;;66.70;29.00;;;;;;;;;;5056751;28;20390;-82
2024/01/13 13:31:54;;;;;;;61.92;27.88;;;;;;;;;;5074462;28;20904;-82
2024/01/13 13:34:20;;;;;;;62.97;28.48;;;;;;;;;;5074259;28;20404;-82
2024/01/13 13:36:46;;;;;;;65.53;28.53;;;;;;;;;;5074622;28;20452;-82
2024/01/13 13:39:16;;;;;;;68.38;29.25;;;;;;;;;;5074722;28;20366;-82
2024/01/13 13:41:42;;;;;;;61.33;27.38;;;;;;;;;;5077067;28;20385;-83
2024/01/13 13:44:08;;;;;;;64.20;27.42;;;;;;;;;;5079945;28;20380;-83
2024/01/13 13:46:35;;;;;;;55.97;25.95;;;;;;;;;;5078897;28;20391;-83
2024/01/13 13:49:02;;;;;;;63.05;26.98;;;;;;;;;;5079040;28;20436;-82
2024/01/13 13:51:29;;;;;;;55.67;26.30;;;;;;;;;;5079160;28;20384;-83
2024/01/13 13:53:56;;;;;;;58.58;25.98;;;;;;;;;;5079252;28;20385;-82
2024/01/13 13:56:22;;;;;;;58.03;25.77;;;;;;;;;;5079293;28;20387;-82
2024/01/13 13:58:48;;;;;;;59.78;27.25;;;;;;;;;;5064243;28;20416;-83
2024/01/13 14:01:14;;;;;;;63.90;28.10;;;;;;;;;;5065078;28;20398;-82
2024/01/13 14:03:40;;;;;;;56.92;27.10;;;;;;;;;;5082958;28;20387;-83
2024/01/13 14:06:06;;;;;;;57.97;26.50;;;;;;;;;;5083388;28;20384;-83
2024/01/13 14:08:33;;;;;;;65.32;27.42;;;;;;;;;;5065089;28;20407;-83
2024/01/13 14:10:58;;;;;;;57.72;25.38;;;;;;;;;;5082454;28;20482;-83